createdAt,value
2018-04-20T00:04:36.948Z,13.40
2018-04-20T00:09:40.187Z,13.40
2018-04-20T00:14:43.473Z,13.20
2018-04-20T00:19:47.292Z,13.20
2018-04-20T00:24:50.943Z,13.10
2018-04-20T00:29:54.303Z,13.10
2018-04-20T00:34:57.526Z,13.00
2018-04-20T00:40:01.175Z,12.80
2018-04-20T00:45:21.816Z,12.80
2018-04-20T00:50:37.828Z,12.80
2018-04-20T00:55:41.049Z,12.90
2018-04-20T01:06:19.604Z,12.70
2018-04-20T01:11:23.024Z,12.70
2018-04-20T01:16:26.304Z,12.50
2018-04-20T01:21:29.649Z,12.50
2018-04-20T01:26:33.275Z,12.60
2018-04-20T01:31:37.503Z,12.60
2018-04-20T01:36:40.853Z,12.40
2018-04-20T01:41:44.208Z,12.10
2018-04-20T01:52:22.881Z,11.60
2018-04-20T01:57:26.497Z,11.30
2018-04-20T02:02:30.193Z,11.00
2018-04-20T02:07:33.531Z,11.00
2018-04-20T02:12:36.738Z,11.10
2018-04-20T02:17:41.399Z,11.10
2018-04-20T02:22:46.771Z,11.40
2018-04-20T02:27:50.056Z,11.40
2018-04-20T02:32:53.288Z,11.50
2018-04-20T02:37:56.506Z,11.20
2018-04-20T02:42:59.739Z,11.20
2018-04-20T02:48:09.358Z,11.20
2018-04-20T02:53:12.695Z,11.20
2018-04-20T02:58:16.926Z,11.20
2018-04-20T03:03:20.722Z,11.10
2018-04-20T03:08:25.088Z,11.10
2018-04-20T03:13:28.842Z,10.90
2018-04-20T03:18:32.199Z,10.90
2018-04-20T03:23:35.419Z,10.90
2018-04-20T03:28:39.027Z,10.80
2018-04-20T03:33:42.662Z,10.70
2018-04-20T03:38:45.889Z,10.70
2018-04-20T03:43:49.121Z,10.60
2018-04-20T03:48:52.366Z,10.60
2018-04-20T03:53:56.556Z,10.10
2018-04-20T03:58:59.793Z,10.10
2018-04-20T04:04:03.480Z,9.80
2018-04-20T04:09:06.820Z,9.80
2018-04-20T04:14:10.521Z,9.90
2018-04-20T04:19:25.662Z,9.90
2018-04-20T04:24:40.899Z,9.90
2018-04-20T04:29:44.207Z,9.90
2018-04-20T04:34:47.476Z,9.80
2018-04-20T04:39:51.742Z,9.80
2018-04-20T04:44:54.996Z,9.70
2018-04-20T04:49:58.321Z,9.60
2018-04-20T04:55:01.562Z,9.70
2018-04-20T05:00:04.784Z,9.70
2018-04-20T05:05:08.455Z,9.80
2018-04-20T05:10:11.661Z,9.80
2018-04-20T05:15:14.883Z,9.90
2018-04-20T05:20:18.104Z,10.10
2018-04-20T05:25:21.735Z,10.50
2018-04-20T05:30:25.008Z,10.50
2018-04-20T05:35:28.224Z,10.70
2018-04-20T05:40:31.446Z,10.90
2018-04-20T05:45:35.163Z,11.20
2018-04-20T05:50:38.822Z,11.30
2018-04-20T05:55:42.197Z,11.30
2018-04-20T06:00:45.841Z,11.80
2018-04-20T06:05:49.153Z,11.80
2018-04-20T06:10:53.815Z,12.00
2018-04-20T06:16:03.517Z,12.20
2018-04-20T06:21:07.739Z,12.40
2018-04-20T06:26:11.366Z,13.00
2018-04-20T06:31:14.592Z,13.00
2018-04-20T06:36:18.551Z,13.20
2018-04-20T06:41:21.765Z,13.50
2018-04-20T06:46:24.972Z,13.50
2018-04-20T06:51:28.189Z,13.50
2018-04-20T06:56:31.911Z,13.30
2018-04-20T07:01:35.532Z,13.40
2018-04-20T07:06:39.154Z,13.40
2018-04-20T07:11:42.375Z,13.40
2018-04-20T07:16:45.629Z,13.50
2018-04-20T07:21:48.845Z,14.00
2018-04-20T07:26:52.066Z,14.30
2018-04-20T07:31:55.699Z,14.70
2018-04-20T07:36:58.927Z,14.70
2018-04-20T07:42:02.138Z,15.10
2018-04-20T07:47:05.346Z,15.10
2018-04-20T07:52:08.559Z,15.30
2018-04-20T07:57:11.804Z,15.30
2018-04-20T08:02:15.417Z,15.70
2018-04-20T08:07:22.129Z,16.00
2018-04-20T08:12:25.615Z,16.00
2018-04-20T08:17:29.239Z,16.50
2018-04-20T08:22:32.871Z,16.60
2018-04-20T08:27:36.128Z,16.60
2018-04-20T08:32:40.475Z,16.80
2018-04-20T08:37:43.719Z,16.80
2018-04-20T08:42:46.930Z,16.90
2018-04-20T08:47:50.155Z,17.00
2018-04-20T08:52:53.385Z,17.40
2018-04-20T08:57:56.614Z,17.50
2018-04-20T09:03:00.227Z,17.70
2018-04-20T09:08:03.527Z,17.70
2018-04-20T09:13:07.150Z,18.40
2018-04-20T09:18:10.783Z,18.30
2018-04-20T09:23:14.025Z,18.30
2018-04-20T09:28:17.244Z,18.30
2018-04-20T09:33:20.505Z,18.60
2018-04-20T09:38:23.910Z,18.90
2018-04-20T09:43:27.272Z,19.10
2018-04-20T09:48:30.610Z,19.40
2018-04-20T09:53:34.319Z,19.50
2018-04-20T09:58:37.636Z,19.50
2018-04-20T10:03:45.796Z,19.60
2018-04-20T10:08:49.462Z,20.10
2018-04-20T10:13:54.667Z,20.10
2018-04-20T10:18:58.146Z,20.10
2018-04-20T10:24:01.947Z,20.80
2018-04-20T10:29:05.213Z,20.80
2018-04-20T10:34:08.429Z,21.10
2018-04-20T10:39:22.417Z,21.30
2018-04-20T10:44:28.282Z,21.30
2018-04-20T10:49:31.520Z,21.20
2018-04-20T10:54:34.731Z,21.00
2018-04-20T10:59:37.973Z,21.70
2018-04-20T11:04:41.280Z,21.50
2018-04-20T11:09:52.340Z,21.70
2018-04-20T11:14:55.782Z,21.80
2018-04-20T11:19:59.018Z,22.30
2018-04-20T11:25:02.630Z,23.00
2018-04-20T11:30:06.314Z,24.20
2018-04-20T11:35:09.542Z,24.20
2018-04-20T11:40:12.770Z,25.70
2018-04-20T11:45:16.402Z,27.90
2018-04-20T11:50:19.882Z,27.90
2018-04-20T11:55:24.062Z,29.40
2018-04-20T12:00:27.416Z,29.40
2018-04-20T12:05:30.754Z,29.40
2018-04-20T12:10:33.992Z,29.80
2018-04-20T12:15:37.249Z,30.70
2018-04-20T12:20:40.864Z,31.40
2018-04-20T12:25:44.506Z,31.70
2018-04-20T12:30:47.761Z,31.70
2018-04-20T12:35:51.020Z,31.30
2018-04-20T12:40:54.238Z,31.10
2018-04-20T12:45:57.464Z,31.30
2018-04-20T12:51:00.694Z,31.50
2018-04-20T12:56:04.025Z,32.40
2018-04-20T13:01:07.238Z,33.30
2018-04-20T13:06:10.810Z,32.40
2018-04-20T13:11:14.049Z,33.30
2018-04-20T13:16:18.261Z,33.70
2018-04-20T13:21:21.974Z,34.00
2018-04-20T13:26:25.190Z,34.00
2018-04-20T13:31:29.078Z,33.30
2018-04-20T13:36:32.406Z,33.30
2018-04-20T13:41:35.640Z,33.10
2018-04-20T13:46:38.875Z,31.00
2018-04-20T13:51:42.095Z,28.80
2018-04-20T13:56:45.324Z,27.40
2018-04-20T14:01:48.560Z,27.50
2018-04-20T14:06:51.984Z,27.60
2018-04-20T14:11:55.322Z,27.70
2018-04-20T14:16:58.547Z,28.60
2018-04-20T14:22:02.872Z,29.80
2018-04-20T14:27:06.095Z,29.30
2018-04-20T14:32:09.374Z,28.70
2018-04-20T14:37:12.591Z,28.20
2018-04-20T14:42:15.950Z,27.90
2018-04-20T14:47:19.191Z,27.50
2018-04-20T14:52:22.423Z,27.20
2018-04-20T14:57:25.742Z,27.10
2018-04-20T15:02:29.419Z,26.60
2018-04-20T15:07:32.983Z,26.50
2018-04-20T15:12:36.371Z,26.50
2018-04-20T15:17:40.075Z,26.10
2018-04-20T15:22:43.308Z,26.10
2018-04-20T15:27:46.688Z,26.10
2018-04-20T15:32:50.605Z,26.00
2018-04-20T15:37:55.174Z,25.30
2018-04-20T15:42:58.388Z,25.40
2018-04-20T15:48:01.623Z,25.10
2018-04-20T15:53:05.035Z,25.00
2018-04-20T15:58:08.267Z,25.30
2018-04-20T16:03:11.664Z,26.60
2018-04-20T16:08:15.367Z,27.10
2018-04-20T16:13:18.998Z,27.50
2018-04-20T16:18:22.224Z,27.50
2018-04-20T16:23:25.507Z,28.30
2018-04-20T16:28:28.713Z,30.80
2018-04-20T16:33:31.939Z,32.60
2018-04-20T16:38:35.152Z,34.10
2018-04-20T16:43:38.482Z,32.90
2018-04-20T16:48:42.096Z,28.10
2018-04-20T16:53:45.324Z,28.10
2018-04-20T16:58:48.531Z,27.90
2018-04-20T17:03:51.768Z,29.50
2018-04-20T17:08:54.994Z,29.60
2018-04-20T17:13:58.723Z,25.30
2018-04-20T17:19:01.941Z,25.30
2018-04-20T17:24:05.179Z,24.30
2018-04-20T17:29:08.404Z,23.60
2018-04-20T17:34:11.713Z,23.10
2018-04-20T17:39:15.334Z,22.30
2018-04-20T17:44:18.957Z,21.90
2018-04-20T17:49:22.240Z,21.90
2018-04-20T17:54:25.846Z,21.30
2018-04-20T17:59:29.452Z,21.10
2018-04-20T18:04:33.058Z,20.90
2018-04-20T18:09:36.277Z,20.90
2018-04-20T18:14:39.508Z,20.60
2018-04-20T18:19:42.718Z,20.20
2018-04-20T18:24:45.942Z,19.70
2018-04-20T18:29:49.177Z,19.30
2018-04-20T18:34:52.796Z,18.60
2018-04-20T18:39:56.427Z,18.40
2018-04-20T18:44:59.629Z,18.40
2018-04-20T18:50:02.845Z,18.30
2018-04-20T18:55:06.097Z,18.10
2018-04-20T19:00:09.325Z,18.00
2018-04-20T19:05:12.559Z,17.70
2018-04-20T19:10:15.775Z,17.70
2018-04-20T19:15:19.009Z,17.70
2018-04-20T19:20:22.268Z,17.60
2018-04-20T19:25:26.408Z,17.50
2018-04-20T19:30:29.642Z,17.00
2018-04-20T19:35:33.363Z,17.10
2018-04-20T19:40:36.973Z,17.00
2018-04-20T19:45:40.686Z,17.10
2018-04-20T19:50:45.028Z,17.00
2018-04-20T19:55:48.715Z,17.00
2018-04-20T20:00:52.331Z,16.80
2018-04-20T20:05:55.943Z,16.50
2018-04-20T20:11:00.287Z,16.30
2018-04-20T20:16:04.150Z,16.30
2018-04-20T20:21:07.876Z,16.20
2018-04-20T20:26:11.210Z,16.10
2018-04-20T20:31:14.450Z,15.90
2018-04-20T20:36:18.070Z,15.90
2018-04-20T20:41:21.383Z,15.80
2018-04-20T20:46:24.615Z,15.70
2018-04-20T20:51:27.840Z,15.40
2018-04-20T20:56:31.071Z,15.20
2018-04-20T21:01:34.282Z,15.10
2018-04-20T21:06:37.536Z,15.30
2018-04-20T21:11:41.107Z,15.30
2018-04-20T21:16:44.501Z,15.10
2018-04-20T21:21:47.722Z,15.00
2018-04-20T21:26:50.966Z,14.80
2018-04-20T21:31:54.203Z,14.60
2018-04-20T21:36:57.443Z,14.50
2018-04-20T21:42:00.674Z,14.30
2018-04-20T21:47:04.017Z,14.20
2018-04-20T21:52:07.643Z,13.70
2018-04-20T21:57:10.866Z,13.70
2018-04-20T22:02:14.100Z,13.60
2018-04-20T22:07:17.314Z,13.50
2018-04-20T22:12:20.626Z,13.70
2018-04-20T22:17:23.856Z,13.90
2018-04-20T22:22:27.485Z,14.00
2018-04-20T22:27:30.723Z,14.00
2018-04-20T22:32:33.953Z,13.90
2018-04-20T22:37:37.190Z,13.70
2018-04-20T22:42:40.414Z,13.50
2018-04-20T22:47:43.621Z,13.50
2018-04-20T22:52:46.884Z,13.40
2018-04-20T22:57:50.185Z,13.40
2018-04-20T23:02:53.402Z,13.30
2018-04-20T23:07:56.625Z,13.10
2018-04-20T23:12:59.856Z,13.00
2018-04-20T23:18:03.075Z,12.60
2018-04-20T23:23:06.308Z,12.20
2018-04-20T23:28:09.563Z,12.30
2018-04-20T23:33:12.823Z,12.30
2018-04-20T23:38:16.174Z,12.00
2018-04-20T23:43:19.421Z,11.90
2018-04-20T23:48:22.652Z,11.50
2018-04-20T23:53:25.910Z,11.40
2018-04-20T23:58:29.176Z,11.60
